sensor_id;sensor_type;location;lat;lon;timestamp;pressure;altitude;pressure_sealevel;temperature;humidity
37832;BME280;23671;38.090;-122.570;2023-03-03T00:01:55;101847.16;;;15.88;55.36
37832;BME280;23671;38.090;-122.570;2023-03-03T00:04:22;101836.63;;;15.86;55.30
37832;BME280;23671;38.090;-122.570;2023-03-03T00:06:49;101841.09;;;15.86;55.57
37832;BME280;23671;38.090;-122.570;2023-03-03T00:09:16;101844.75;;;15.85;55.74
37832;BME280;23671;38.090;-122.570;2023-03-03T00:11:43;101846.44;;;15.86;55.73
37832;BME280;23671;38.090;-122.570;2023-03-03T00:14:22;101849.09;;;15.86;55.88
37832;BME280;23671;38.090;-122.570;2023-03-03T00:16:50;101855.78;;;15.80;55.92
37832;BME280;23671;38.090;-122.570;2023-03-03T00:19:19;101851.53;;;15.78;56.17
37832;BME280;23671;38.090;-122.570;2023-03-03T00:21:48;101858.09;;;15.74;55.93
37832;BME280;23671;38.090;-122.570;2023-03-03T00:26:54;101855.84;;;15.69;56.48
37832;BME280;23671;38.090;-122.570;2023-03-03T00:31:57;101845.69;;;15.63;56.52
37832;BME280;23671;38.090;-122.570;2023-03-03T00:34:28;101850.28;;;15.61;56.72
37832;BME280;23671;38.090;-122.570;2023-03-03T00:36:57;101846.03;;;15.59;56.62
37832;BME280;23671;38.090;-122.570;2023-03-03T00:39:36;101860.47;;;15.56;56.66
37832;BME280;23671;38.090;-122.570;2023-03-03T00:42:14;101858.91;;;15.54;56.91
37832;BME280;23671;38.090;-122.570;2023-03-03T00:44:44;101851.88;;;15.53;56.99
37832;BME280;23671;38.090;-122.570;2023-03-03T00:47:26;101847.66;;;15.50;56.94
37832;BME280;23671;38.090;-122.570;2023-03-03T00:50:24;101856.00;;;15.45;56.93
37832;BME280;23671;38.090;-122.570;2023-03-03T00:53:05;101834.84;;;15.44;57.02
37832;BME280;23671;38.090;-122.570;2023-03-03T00:55:34;101837.00;;;15.39;57.24
37832;BME280;23671;38.090;-122.570;2023-03-03T00:58:02;101839.66;;;15.39;57.27
37832;BME280;23671;38.090;-122.570;2023-03-03T01:00:29;101840.78;;;15.36;57.10
37832;BME280;23671;38.090;-122.570;2023-03-03T01:02:57;101841.84;;;15.34;57.23
37832;BME280;23671;38.090;-122.570;2023-03-03T01:05:25;101842.56;;;15.36;57.39
37832;BME280;23671;38.090;-122.570;2023-03-03T01:07:52;101848.53;;;15.28;57.35
37832;BME280;23671;38.090;-122.570;2023-03-03T01:10:19;101848.75;;;15.25;57.38
37832;BME280;23671;38.090;-122.570;2023-03-03T01:12:46;101846.00;;;15.27;57.27
37832;BME280;23671;38.090;-122.570;2023-03-03T01:15:14;101850.81;;;15.22;57.62
37832;BME280;23671;38.090;-122.570;2023-03-03T01:17:42;101865.59;;;15.15;57.68
37832;BME280;23671;38.090;-122.570;2023-03-03T01:20:11;101878.75;;;15.16;57.60
37832;BME280;23671;38.090;-122.570;2023-03-03T01:22:38;101887.38;;;15.09;57.19
37832;BME280;23671;38.090;-122.570;2023-03-03T01:25:06;101890.16;;;15.07;56.94
37832;BME280;23671;38.090;-122.570;2023-03-03T01:27:34;101887.97;;;15.01;57.38
37832;BME280;23671;38.090;-122.570;2023-03-03T01:30:03;101887.59;;;14.95;57.17
37832;BME280;23671;38.090;-122.570;2023-03-03T01:32:30;101884.34;;;14.91;57.23
37832;BME280;23671;38.090;-122.570;2023-03-03T01:34:57;101874.91;;;14.87;57.25
37832;BME280;23671;38.090;-122.570;2023-03-03T01:37:24;101876.09;;;14.83;57.47
37832;BME280;23671;38.090;-122.570;2023-03-03T01:39:53;101874.66;;;14.79;57.44
37832;BME280;23671;38.090;-122.570;2023-03-03T01:42:21;101883.50;;;14.80;57.63
37832;BME280;23671;38.090;-122.570;2023-03-03T01:44:48;101902.34;;;14.77;57.59
37832;BME280;23671;38.090;-122.570;2023-03-03T01:47:23;101908.00;;;14.72;57.51
37832;BME280;23671;38.090;-122.570;2023-03-03T01:50:05;101902.31;;;14.66;57.59
37832;BME280;23671;38.090;-122.570;2023-03-03T01:52:40;101906.19;;;14.62;57.74
37832;BME280;23671;38.090;-122.570;2023-03-03T01:55:21;101910.88;;;14.58;57.56
37832;BME280;23671;38.090;-122.570;2023-03-03T01:57:56;101896.03;;;14.55;58.32
37832;BME280;23671;38.090;-122.570;2023-03-03T02:00:26;101922.84;;;14.52;57.93
37832;BME280;23671;38.090;-122.570;2023-03-03T02:02:54;101924.03;;;14.48;58.41
37832;BME280;23671;38.090;-122.570;2023-03-03T02:05:22;101909.53;;;14.41;58.12
37832;BME280;23671;38.090;-122.570;2023-03-03T02:07:49;101915.19;;;14.37;58.00
37832;BME280;23671;38.090;-122.570;2023-03-03T02:10:18;101926.78;;;14.36;58.49
37832;BME280;23671;38.090;-122.570;2023-03-03T02:12:50;101919.03;;;14.33;58.50
37832;BME280;23671;38.090;-122.570;2023-03-03T02:17:47;101925.88;;;14.24;58.47
37832;BME280;23671;38.090;-122.570;2023-03-03T02:23:12;101920.28;;;14.16;58.30
37832;BME280;23671;38.090;-122.570;2023-03-03T02:28:34;101938.59;;;14.08;58.39
37832;BME280;23671;38.090;-122.570;2023-03-03T02:31:02;101947.75;;;14.04;58.12
37832;BME280;23671;38.090;-122.570;2023-03-03T02:33:29;101948.09;;;14.00;58.50
37832;BME280;23671;38.090;-122.570;2023-03-03T02:35:56;101927.06;;;13.97;58.26
37832;BME280;23671;38.090;-122.570;2023-03-03T02:38:36;101918.47;;;13.93;58.03
37832;BME280;23671;38.090;-122.570;2023-03-03T02:41:09;101924.84;;;13.91;58.20
37832;BME280;23671;38.090;-122.570;2023-03-03T02:43:54;101912.03;;;13.85;58.20
37832;BME280;23671;38.090;-122.570;2023-03-03T02:46:31;101911.28;;;13.83;58.15
37832;BME280;23671;38.090;-122.570;2023-03-03T02:48:58;101920.91;;;13.73;58.35
37832;BME280;23671;38.090;-122.570;2023-03-03T02:51:26;101927.06;;;13.73;58.36
37832;BME280;23671;38.090;-122.570;2023-03-03T02:53:53;101920.28;;;13.69;57.89
37832;BME280;23671;38.090;-122.570;2023-03-03T02:56:20;101918.88;;;13.76;57.20
37832;BME280;23671;38.090;-122.570;2023-03-03T02:58:47;101911.59;;;13.67;57.73
37832;BME280;23671;38.090;-122.570;2023-03-03T03:01:14;101906.81;;;13.59;57.62
37832;BME280;23671;38.090;-122.570;2023-03-03T03:03:41;101908.13;;;13.54;58.35
37832;BME280;23671;38.090;-122.570;2023-03-03T03:06:08;101903.91;;;13.51;58.03
37832;BME280;23671;38.090;-122.570;2023-03-03T03:08:36;101898.06;;;13.46;57.96
37832;BME280;23671;38.090;-122.570;2023-03-03T03:11:04;101890.34;;;13.43;57.96
37832;BME280;23671;38.090;-122.570;2023-03-03T03:13:34;101877.50;;;13.37;58.33
37832;BME280;23671;38.090;-122.570;2023-03-03T03:16:02;101874.25;;;13.34;58.48
37832;BME280;23671;38.090;-122.570;2023-03-03T03:18:29;101868.31;;;13.30;57.45
37832;BME280;23671;38.090;-122.570;2023-03-03T03:20:56;101874.69;;;13.28;58.21
37832;BME280;23671;38.090;-122.570;2023-03-03T03:23:23;101878.50;;;13.24;57.70
37832;BME280;23671;38.090;-122.570;2023-03-03T03:25:50;101872.22;;;13.25;56.58
37832;BME280;23671;38.090;-122.570;2023-03-03T03:28:17;101880.53;;;13.20;57.12
37832;BME280;23671;38.090;-122.570;2023-03-03T03:30:44;101875.44;;;13.17;56.40
37832;BME280;23671;38.090;-122.570;2023-03-03T03:33:12;101883.38;;;13.17;56.59
37832;BME280;23671;38.090;-122.570;2023-03-03T03:35:39;101884.56;;;13.13;56.80
37832;BME280;23671;38.090;-122.570;2023-03-03T03:38:12;101873.44;;;13.08;56.42
37832;BME280;23671;38.090;-122.570;2023-03-03T03:40:40;101871.03;;;13.05;55.14
37832;BME280;23671;38.090;-122.570;2023-03-03T03:43:07;101884.56;;;13.01;56.39
37832;BME280;23671;38.090;-122.570;2023-03-03T03:45:34;101873.75;;;12.91;55.16
37832;BME280;23671;38.090;-122.570;2023-03-03T03:48:02;101883.13;;;12.84;55.67
37832;BME280;23671;38.090;-122.570;2023-03-03T03:50:29;101889.47;;;12.82;55.93
37832;BME280;23671;38.090;-122.570;2023-03-03T03:52:56;101889.78;;;12.77;55.26
37832;BME280;23671;38.090;-122.570;2023-03-03T03:55:23;101892.84;;;12.71;55.98
37832;BME280;23671;38.090;-122.570;2023-03-03T03:57:50;101887.78;;;12.68;56.14
37832;BME280;23671;38.090;-122.570;2023-03-03T04:00:17;101886.41;;;12.62;55.89
37832;BME280;23671;38.090;-122.570;2023-03-03T04:02:44;101890.09;;;12.60;55.71
37832;BME280;23671;38.090;-122.570;2023-03-03T04:05:11;101894.13;;;12.53;55.43
37832;BME280;23671;38.090;-122.570;2023-03-03T04:07:38;101897.94;;;12.49;55.60
37832;BME280;23671;38.090;-122.570;2023-03-03T04:10:06;101887.66;;;12.44;56.45
37832;BME280;23671;38.090;-122.570;2023-03-03T04:12:33;101872.91;;;12.40;56.30
37832;BME280;23671;38.090;-122.570;2023-03-03T04:15:13;101874.38;;;12.19;60.48
37832;BME280;23671;38.090;-122.570;2023-03-03T04:17:41;101872.22;;;11.99;61.82
37832;BME280;23671;38.090;-122.570;2023-03-03T04:20:11;101872.06;;;11.88;62.72
37832;BME280;23671;38.090;-122.570;2023-03-03T04:22:39;101874.06;;;11.84;62.99
37832;BME280;23671;38.090;-122.570;2023-03-03T04:25:07;101873.72;;;11.76;62.66
37832;BME280;23671;38.090;-122.570;2023-03-03T04:27:36;101870.38;;;11.60;63.52
37832;BME280;23671;38.090;-122.570;2023-03-03T04:30:04;101871.38;;;11.45;64.30
37832;BME280;23671;38.090;-122.570;2023-03-03T04:32:32;101872.41;;;11.43;64.59
37832;BME280;23671;38.090;-122.570;2023-03-03T04:35:00;101880.44;;;11.41;64.04
37832;BME280;23671;38.090;-122.570;2023-03-03T04:37:28;101901.50;;;11.29;64.75
37832;BME280;23671;38.090;-122.570;2023-03-03T04:39:55;101897.84;;;11.31;64.52
37832;BME280;23671;38.090;-122.570;2023-03-03T04:42:22;101911.44;;;11.25;64.95
37832;BME280;23671;38.090;-122.570;2023-03-03T04:44:49;101904.91;;;11.17;65.18
37832;BME280;23671;38.090;-122.570;2023-03-03T04:47:16;101910.31;;;11.15;65.71
37832;BME280;23671;38.090;-122.570;2023-03-03T04:49:43;101917.47;;;11.13;66.08
37832;BME280;23671;38.090;-122.570;2023-03-03T04:52:10;101927.41;;;11.10;66.47
37832;BME280;23671;38.090;-122.570;2023-03-03T04:54:37;101925.88;;;11.06;66.57
37832;BME280;23671;38.090;-122.570;2023-03-03T04:57:04;101936.72;;;11.01;66.83
37832;BME280;23671;38.090;-122.570;2023-03-03T04:59:31;101931.19;;;11.06;66.68
37832;BME280;23671;38.090;-122.570;2023-03-03T05:01:58;101926.91;;;11.03;66.83
37832;BME280;23671;38.090;-122.570;2023-03-03T05:04:25;101925.22;;;11.02;67.31
37832;BME280;23671;38.090;-122.570;2023-03-03T05:06:52;101931.84;;;10.95;67.55
37832;BME280;23671;38.090;-122.570;2023-03-03T05:09:19;101923.53;;;10.87;68.12
37832;BME280;23671;38.090;-122.570;2023-03-03T05:11:46;101930.59;;;10.86;68.09
37832;BME280;23671;38.090;-122.570;2023-03-03T05:14:13;101936.00;;;10.85;67.86
37832;BME280;23671;38.090;-122.570;2023-03-03T05:16:40;101925.69;;;10.80;68.37
37832;BME280;23671;38.090;-122.570;2023-03-03T05:19:07;101928.63;;;10.76;68.39
37832;BME280;23671;38.090;-122.570;2023-03-03T05:21:34;101939.19;;;10.76;67.99
37832;BME280;23671;38.090;-122.570;2023-03-03T05:24:01;101933.22;;;10.72;68.19
37832;BME280;23671;38.090;-122.570;2023-03-03T05:26:28;101938.34;;;10.75;68.01
37832;BME280;23671;38.090;-122.570;2023-03-03T05:28:55;101935.22;;;10.69;67.87
37832;BME280;23671;38.090;-122.570;2023-03-03T05:31:22;101939.56;;;10.70;67.39
37832;BME280;23671;38.090;-122.570;2023-03-03T05:33:49;101942.97;;;10.72;67.53
37832;BME280;23671;38.090;-122.570;2023-03-03T05:36:16;101944.34;;;10.63;67.45
37832;BME280;23671;38.090;-122.570;2023-03-03T05:38:43;101948.97;;;10.60;67.41
37832;BME280;23671;38.090;-122.570;2023-03-03T05:41:10;101954.16;;;10.61;67.14
37832;BME280;23671;38.090;-122.570;2023-03-03T05:43:37;101952.53;;;10.59;66.92
37832;BME280;23671;38.090;-122.570;2023-03-03T05:46:04;101968.31;;;10.60;66.86
37832;BME280;23671;38.090;-122.570;2023-03-03T05:48:31;101955.84;;;10.48;67.32
37832;BME280;23671;38.090;-122.570;2023-03-03T05:50:59;101954.97;;;10.48;67.48
37832;BME280;23671;38.090;-122.570;2023-03-03T05:53:28;101966.97;;;10.53;66.67
37832;BME280;23671;38.090;-122.570;2023-03-03T05:55:55;101966.03;;;10.54;66.32
37832;BME280;23671;38.090;-122.570;2023-03-03T05:58:23;101954.81;;;10.51;66.50
37832;BME280;23671;38.090;-122.570;2023-03-03T06:00:50;101951.66;;;10.44;66.72
37832;BME280;23671;38.090;-122.570;2023-03-03T06:03:17;101953.81;;;10.38;66.81
37832;BME280;23671;38.090;-122.570;2023-03-03T06:05:44;101952.88;;;10.39;66.81
37832;BME280;23671;38.090;-122.570;2023-03-03T06:08:11;101957.50;;;10.35;66.96
37832;BME280;23671;38.090;-122.570;2023-03-03T06:10:38;101965.94;;;10.26;67.47
37832;BME280;23671;38.090;-122.570;2023-03-03T06:13:05;101964.91;;;10.29;67.66
37832;BME280;23671;38.090;-122.570;2023-03-03T06:15:32;101959.63;;;10.29;67.39
37832;BME280;23671;38.090;-122.570;2023-03-03T06:17:59;101947.75;;;10.22;67.64
37832;BME280;23671;38.090;-122.570;2023-03-03T06:20:26;101941.84;;;10.17;67.88
37832;BME280;23671;38.090;-122.570;2023-03-03T06:22:53;101940.06;;;10.01;68.72
37832;BME280;23671;38.090;-122.570;2023-03-03T06:25:20;101924.50;;;9.97;68.29
37832;BME280;23671;38.090;-122.570;2023-03-03T06:27:47;101923.25;;;9.88;69.10
37832;BME280;23671;38.090;-122.570;2023-03-03T06:30:14;101922.38;;;9.88;68.73
37832;BME280;23671;38.090;-122.570;2023-03-03T06:32:42;101920.88;;;9.84;68.28
37832;BME280;23671;38.090;-122.570;2023-03-03T06:35:09;101937.97;;;9.77;68.93
37832;BME280;23671;38.090;-122.570;2023-03-03T06:37:36;101933.72;;;9.74;68.56
37832;BME280;23671;38.090;-122.570;2023-03-03T06:40:05;101935.00;;;9.67;68.07
37832;BME280;23671;38.090;-122.570;2023-03-03T06:42:32;101932.13;;;9.56;69.45
37832;BME280;23671;38.090;-122.570;2023-03-03T06:44:59;101936.22;;;9.46;69.67
37832;BME280;23671;38.090;-122.570;2023-03-03T06:47:26;101941.28;;;9.49;69.22
37832;BME280;23671;38.090;-122.570;2023-03-03T06:49:53;101939.75;;;9.45;69.08
37832;BME280;23671;38.090;-122.570;2023-03-03T06:52:23;101931.78;;;9.47;68.64
37832;BME280;23671;38.090;-122.570;2023-03-03T06:54:57;101940.28;;;9.36;69.04
37832;BME280;23671;38.090;-122.570;2023-03-03T06:57:32;101926.41;;;9.33;69.11
37832;BME280;23671;38.090;-122.570;2023-03-03T07:00:16;101929.28;;;9.28;68.44
37832;BME280;23671;38.090;-122.570;2023-03-03T07:02:47;101940.69;;;9.29;68.72
37832;BME280;23671;38.090;-122.570;2023-03-03T07:05:19;101932.19;;;9.24;68.63
37832;BME280;23671;38.090;-122.570;2023-03-03T07:07:46;101938.56;;;9.20;69.17
37832;BME280;23671;38.090;-122.570;2023-03-03T07:10:29;101936.84;;;9.18;68.90
37832;BME280;23671;38.090;-122.570;2023-03-03T07:13:07;101940.34;;;9.19;69.26
37832;BME280;23671;38.090;-122.570;2023-03-03T07:15:41;101937.69;;;9.19;69.78
37832;BME280;23671;38.090;-122.570;2023-03-03T07:20:52;101951.47;;;9.24;68.55
37832;BME280;23671;38.090;-122.570;2023-03-03T07:23:29;101956.75;;;9.24;69.41
37832;BME280;23671;38.090;-122.570;2023-03-03T07:26:00;101962.63;;;9.29;69.51
37832;BME280;23671;38.090;-122.570;2023-03-03T07:28:28;101964.75;;;9.23;69.33
37832;BME280;23671;38.090;-122.570;2023-03-03T07:30:58;101960.47;;;9.20;69.98
37832;BME280;23671;38.090;-122.570;2023-03-03T07:33:29;101942.13;;;9.18;69.86
37832;BME280;23671;38.090;-122.570;2023-03-03T07:35:58;101959.09;;;9.13;70.01
37832;BME280;23671;38.090;-122.570;2023-03-03T07:38:40;101953.75;;;9.14;69.79
37832;BME280;23671;38.090;-122.570;2023-03-03T07:41:16;101948.38;;;9.16;70.06
37832;BME280;23671;38.090;-122.570;2023-03-03T07:44:04;101946.88;;;9.12;70.24
37832;BME280;23671;38.090;-122.570;2023-03-03T07:46:48;101954.69;;;9.13;70.14
37832;BME280;23671;38.090;-122.570;2023-03-03T07:49:23;101956.47;;;9.13;68.99
37832;BME280;23671;38.090;-122.570;2023-03-03T07:51:56;101953.66;;;9.16;69.84
37832;BME280;23671;38.090;-122.570;2023-03-03T07:54:30;101954.50;;;9.16;69.88
37832;BME280;23671;38.090;-122.570;2023-03-03T08:03:04;101947.63;;;9.14;70.02
37832;BME280;23671;38.090;-122.570;2023-03-03T08:05:35;101944.06;;;9.15;69.48
37832;BME280;23671;38.090;-122.570;2023-03-03T08:10:48;101950.66;;;9.06;70.06
37832;BME280;23671;38.090;-122.570;2023-03-03T08:13:35;101961.38;;;9.03;70.52
37832;BME280;23671;38.090;-122.570;2023-03-03T08:18:43;101960.59;;;9.01;70.40
37832;BME280;23671;38.090;-122.570;2023-03-03T08:21:15;101951.94;;;8.99;70.07
37832;BME280;23671;38.090;-122.570;2023-03-03T08:23:44;101949.06;;;9.04;69.25
37832;BME280;23671;38.090;-122.570;2023-03-03T08:26:12;101957.13;;;9.01;69.73
37832;BME280;23671;38.090;-122.570;2023-03-03T08:28:39;101957.38;;;8.96;70.42
37832;BME280;23671;38.090;-122.570;2023-03-03T08:31:06;101967.97;;;8.95;70.73
37832;BME280;23671;38.090;-122.570;2023-03-03T08:33:33;101962.97;;;8.90;70.16
37832;BME280;23671;38.090;-122.570;2023-03-03T08:36:00;101953.59;;;8.85;70.73
37832;BME280;23671;38.090;-122.570;2023-03-03T08:38:28;101952.88;;;8.81;71.00
37832;BME280;23671;38.090;-122.570;2023-03-03T08:40:54;101953.75;;;8.82;70.43
37832;BME280;23671;38.090;-122.570;2023-03-03T08:43:21;101954.91;;;8.76;71.24
37832;BME280;23671;38.090;-122.570;2023-03-03T08:45:52;101951.81;;;8.68;71.80
37832;BME280;23671;38.090;-122.570;2023-03-03T08:48:20;101944.97;;;8.66;71.22
37832;BME280;23671;38.090;-122.570;2023-03-03T08:50:47;101943.31;;;8.63;71.32
37832;BME280;23671;38.090;-122.570;2023-03-03T08:53:15;101938.19;;;8.60;71.70
37832;BME280;23671;38.090;-122.570;2023-03-03T08:55:42;101945.31;;;8.58;72.05
37832;BME280;23671;38.090;-122.570;2023-03-03T08:58:10;101936.81;;;8.53;72.48
37832;BME280;23671;38.090;-122.570;2023-03-03T09:00:37;101932.72;;;8.48;72.07
37832;BME280;23671;38.090;-122.570;2023-03-03T09:03:04;101932.72;;;8.48;72.11
37832;BME280;23671;38.090;-122.570;2023-03-03T09:05:33;101947.97;;;8.41;72.95
37832;BME280;23671;38.090;-122.570;2023-03-03T09:08:01;101940.16;;;8.40;72.79
37832;BME280;23671;38.090;-122.570;2023-03-03T09:10:29;101932.44;;;8.37;72.76
37832;BME280;23671;38.090;-122.570;2023-03-03T09:13:09;101939.47;;;8.36;72.09
37832;BME280;23671;38.090;-122.570;2023-03-03T09:15:38;101937.69;;;8.37;71.75
37832;BME280;23671;38.090;-122.570;2023-03-03T09:18:18;101939.00;;;8.28;72.42
37832;BME280;23671;38.090;-122.570;2023-03-03T09:20:48;101930.50;;;8.21;72.42
37832;BME280;23671;38.090;-122.570;2023-03-03T09:23:38;101923.38;;;8.23;72.06
37832;BME280;23671;38.090;-122.570;2023-03-03T09:28:48;101916.28;;;8.08;73.72
37832;BME280;23671;38.090;-122.570;2023-03-03T09:31:36;101916.13;;;8.11;73.72
37832;BME280;23671;38.090;-122.570;2023-03-03T09:34:45;101910.41;;;8.03;73.82
37832;BME280;23671;38.090;-122.570;2023-03-03T09:39:52;101908.97;;;7.96;74.65
37832;BME280;23671;38.090;-122.570;2023-03-03T09:47:55;101904.03;;;7.90;74.32
37832;BME280;23671;38.090;-122.570;2023-03-03T09:55:43;101895.69;;;7.82;73.19
37832;BME280;23671;38.090;-122.570;2023-03-03T09:58:29;101904.44;;;7.83;72.76
37832;BME280;23671;38.090;-122.570;2023-03-03T10:06:48;101901.38;;;7.73;72.30
37832;BME280;23671;38.090;-122.570;2023-03-03T10:13:06;101899.25;;;7.63;72.86
37832;BME280;23671;38.090;-122.570;2023-03-03T10:15:39;101898.50;;;7.61;73.09
37832;BME280;23671;38.090;-122.570;2023-03-03T10:34:49;101908.81;;;7.28;72.57
37832;BME280;23671;38.090;-122.570;2023-03-03T10:49:12;101881.78;;;7.07;72.81
37832;BME280;23671;38.090;-122.570;2023-03-03T11:05:50;101875.19;;;6.79;73.58
37832;BME280;23671;38.090;-122.570;2023-03-03T11:32:52;101881.56;;;7.30;79.25
37832;BME280;23671;38.090;-122.570;2023-03-03T11:38:39;101866.59;;;7.32;76.73
37832;BME280;23671;38.090;-122.570;2023-03-03T11:41:34;101876.78;;;7.38;75.93
37832;BME280;23671;38.090;-122.570;2023-03-03T11:44:34;101870.59;;;7.40;76.13
37832;BME280;23671;38.090;-122.570;2023-03-03T11:47:33;101865.19;;;7.43;75.77
37832;BME280;23671;38.090;-122.570;2023-03-03T11:50:11;101867.78;;;7.44;77.18
37832;BME280;23671;38.090;-122.570;2023-03-03T11:53:01;101848.22;;;7.50;75.64
37832;BME280;23671;38.090;-122.570;2023-03-03T11:55:38;101857.59;;;7.55;74.47
37832;BME280;23671;38.090;-122.570;2023-03-03T12:01:36;101849.63;;;7.57;74.50
37832;BME280;23671;38.090;-122.570;2023-03-03T12:04:14;101848.72;;;7.58;76.03
37832;BME280;23671;38.090;-122.570;2023-03-03T12:10:03;101851.47;;;7.55;77.49
37832;BME280;23671;38.090;-122.570;2023-03-03T12:12:47;101847.84;;;7.57;76.20
37832;BME280;23671;38.090;-122.570;2023-03-03T12:28:45;101849.16;;;7.66;76.49
37832;BME280;23671;38.090;-122.570;2023-03-03T12:36:49;101840.50;;;7.64;75.63
37832;BME280;23671;38.090;-122.570;2023-03-03T12:43:01;101838.72;;;7.64;75.11
37832;BME280;23671;38.090;-122.570;2023-03-03T12:45:41;101841.03;;;7.53;80.50
37832;BME280;23671;38.090;-122.570;2023-03-03T12:56:08;101825.09;;;7.39;78.75
37832;BME280;23671;38.090;-122.570;2023-03-03T12:58:51;101834.03;;;7.35;77.81
37832;BME280;23671;38.090;-122.570;2023-03-03T13:12:34;101825.50;;;7.13;78.87
37832;BME280;23671;38.090;-122.570;2023-03-03T13:20:33;101831.59;;;6.95;80.92
37832;BME280;23671;38.090;-122.570;2023-03-03T13:26:02;101830.72;;;6.94;79.47
37832;BME280;23671;38.090;-122.570;2023-03-03T13:28:56;101828.19;;;6.93;78.91
37832;BME280;23671;38.090;-122.570;2023-03-03T13:34:02;101826.00;;;6.84;78.01
37832;BME280;23671;38.090;-122.570;2023-03-03T13:36:43;101823.44;;;6.82;77.88
37832;BME280;23671;38.090;-122.570;2023-03-03T13:40:32;101834.28;;;6.75;77.87
37832;BME280;23671;38.090;-122.570;2023-03-03T13:42:43;101824.84;;;6.71;77.38
37832;BME280;23671;38.090;-122.570;2023-03-03T13:45:26;101833.88;;;6.65;78.02
37832;BME280;23671;38.090;-122.570;2023-03-03T13:48:08;101830.50;;;6.62;78.79
37832;BME280;23671;38.090;-122.570;2023-03-03T13:50:49;101829.59;;;6.63;78.18
37832;BME280;23671;38.090;-122.570;2023-03-03T13:56:28;101843.06;;;6.55;78.06
37832;BME280;23671;38.090;-122.570;2023-03-03T14:08:13;101840.97;;;6.43;77.17
37832;BME280;23671;38.090;-122.570;2023-03-03T14:10:57;101844.53;;;6.42;76.89
37832;BME280;23671;38.090;-122.570;2023-03-03T14:16:14;101855.47;;;6.31;76.42
37832;BME280;23671;38.090;-122.570;2023-03-03T14:19:01;101849.69;;;6.23;76.26
37832;BME280;23671;38.090;-122.570;2023-03-03T14:24:18;101875.34;;;6.17;76.03
37832;BME280;23671;38.090;-122.570;2023-03-03T14:26:54;101868.44;;;6.14;76.73
37832;BME280;23671;38.090;-122.570;2023-03-03T14:29:30;101872.06;;;6.12;76.96
37832;BME280;23671;38.090;-122.570;2023-03-03T14:32:00;101877.38;;;6.10;77.02
37832;BME280;23671;38.090;-122.570;2023-03-03T14:34:36;101881.75;;;6.10;76.67
37832;BME280;23671;38.090;-122.570;2023-03-03T14:37:29;101884.59;;;6.05;76.90
37832;BME280;23671;38.090;-122.570;2023-03-03T14:40:21;101875.94;;;6.03;76.86
37832;BME280;23671;38.090;-122.570;2023-03-03T14:42:54;101877.75;;;6.01;76.66
37832;BME280;23671;38.090;-122.570;2023-03-03T14:45:38;101869.69;;;6.06;76.79
37832;BME280;23671;38.090;-122.570;2023-03-03T14:48:21;101881.97;;;6.05;76.99
37832;BME280;23671;38.090;-122.570;2023-03-03T14:50:57;101881.88;;;6.07;76.95
37832;BME280;23671;38.090;-122.570;2023-03-03T14:53:41;101890.88;;;6.01;77.19
37832;BME280;23671;38.090;-122.570;2023-03-03T14:56:35;101879.84;;;5.93;76.93
37832;BME280;23671;38.090;-122.570;2023-03-03T14:59:23;101893.19;;;5.87;77.67
37832;BME280;23671;38.090;-122.570;2023-03-03T15:04:28;101892.41;;;5.85;78.83
37832;BME280;23671;38.090;-122.570;2023-03-03T15:06:56;101891.53;;;5.85;78.31
37832;BME280;23671;38.090;-122.570;2023-03-03T15:09:36;101888.84;;;5.86;78.10
37832;BME280;23671;38.090;-122.570;2023-03-03T15:12:22;101878.38;;;5.86;78.84
37832;BME280;23671;38.090;-122.570;2023-03-03T15:15:36;101882.78;;;5.86;79.28
37832;BME280;23671;38.090;-122.570;2023-03-03T15:17:40;101889.00;;;5.83;80.04
37832;BME280;23671;38.090;-122.570;2023-03-03T15:20:13;101896.59;;;5.89;80.92
37832;BME280;23671;38.090;-122.570;2023-03-03T15:22:50;101905.25;;;5.91;78.64
37832;BME280;23671;38.090;-122.570;2023-03-03T15:28:09;101902.41;;;5.97;78.49
37832;BME280;23671;38.090;-122.570;2023-03-03T15:33:26;101889.44;;;6.14;76.56
37832;BME280;23671;38.090;-122.570;2023-03-03T15:36:34;101902.16;;;6.23;76.21
37832;BME280;23671;38.090;-122.570;2023-03-03T15:50:37;101918.72;;;6.64;76.79
37832;BME280;23671;38.090;-122.570;2023-03-03T15:56:22;101929.56;;;6.77;76.65
37832;BME280;23671;38.090;-122.570;2023-03-03T16:04:29;101929.78;;;6.91;78.67
37832;BME280;23671;38.090;-122.570;2023-03-03T16:07:06;101918.16;;;6.96;78.52
37832;BME280;23671;38.090;-122.570;2023-03-03T16:09:44;101914.47;;;7.00;78.89
37832;BME280;23671;38.090;-122.570;2023-03-03T16:12:35;101917.75;;;7.05;80.36
37832;BME280;23671;38.090;-122.570;2023-03-03T16:15:24;101932.38;;;7.11;80.22
37832;BME280;23671;38.090;-122.570;2023-03-03T16:23:55;101939.03;;;7.18;78.65
37832;BME280;23671;38.090;-122.570;2023-03-03T16:45:50;101963.28;;;7.43;77.21
37832;BME280;23671;38.090;-122.570;2023-03-03T16:51:35;101928.81;;;7.49;77.12
37832;BME280;23671;38.090;-122.570;2023-03-03T16:54:23;101923.41;;;7.52;76.94
37832;BME280;23671;38.090;-122.570;2023-03-03T17:16:01;101889.03;;;7.92;77.01
37832;BME280;23671;38.090;-122.570;2023-03-03T17:21:02;101891.22;;;8.01;76.97
37832;BME280;23671;38.090;-122.570;2023-03-03T17:27:02;101886.34;;;8.11;77.48
37832;BME280;23671;38.090;-122.570;2023-03-03T17:29:48;101873.03;;;8.14;76.79
37832;BME280;23671;38.090;-122.570;2023-03-03T17:35:28;101885.72;;;8.23;77.56
37832;BME280;23671;38.090;-122.570;2023-03-03T17:41:37;101876.41;;;8.35;76.60